sensor_id;sensor_type;location;lat;lon;timestamp;temperature;humidity
40952;DHT22;26682;51.660;19.338;2023-05-07T00:01:23;6.10;99.90
40952;DHT22;26682;51.660;19.338;2023-05-07T00:04:06;6.10;99.90
40952;DHT22;26682;51.660;19.338;2023-05-07T00:06:50;6.10;99.90
40952;DHT22;26682;51.660;19.338;2023-05-07T00:09:33;6.10;99.90
40952;DHT22;26682;51.660;19.338;2023-05-07T00:12:16;6.10;99.90
40952;DHT22;26682;51.660;19.338;2023-05-07T00:15:04;6.10;99.90
40952;DHT22;26682;51.660;19.338;2023-05-07T00:17:47;6.10;99.90
40952;DHT22;26682;51.660;19.338;2023-05-07T00:20:29;6.10;99.90
40952;DHT22;26682;51.660;19.338;2023-05-07T00:23:12;6.10;99.90
40952;DHT22;26682;51.660;19.338;2023-05-07T00:25:56;6.10;99.90
40952;DHT22;26682;51.660;19.338;2023-05-07T00:28:38;6.10;99.90
40952;DHT22;26682;51.660;19.338;2023-05-07T00:31:21;6.10;99.90
40952;DHT22;26682;51.660;19.338;2023-05-07T00:34:04;6.10;99.90
40952;DHT22;26682;51.660;19.338;2023-05-07T00:36:46;6.10;99.90
40952;DHT22;26682;51.660;19.338;2023-05-07T00:39:28;6.10;99.90
40952;DHT22;26682;51.660;19.338;2023-05-07T00:42:11;6.00;99.90
40952;DHT22;26682;51.660;19.338;2023-05-07T00:44:53;6.00;99.90
40952;DHT22;26682;51.660;19.338;2023-05-07T00:47:36;6.00;99.90
40952;DHT22;26682;51.660;19.338;2023-05-07T00:50:19;5.90;99.90
40952;DHT22;26682;51.660;19.338;2023-05-07T00:53:02;5.90;99.90
40952;DHT22;26682;51.660;19.338;2023-05-07T00:55:45;5.90;99.90
40952;DHT22;26682;51.660;19.338;2023-05-07T00:58:28;5.90;99.90
40952;DHT22;26682;51.660;19.338;2023-05-07T01:01:10;5.90;99.90
40952;DHT22;26682;51.660;19.338;2023-05-07T01:03:53;5.90;99.90
40952;DHT22;26682;51.660;19.338;2023-05-07T01:06:37;5.90;99.90
40952;DHT22;26682;51.660;19.338;2023-05-07T01:09:20;5.90;99.90
40952;DHT22;26682;51.660;19.338;2023-05-07T01:12:04;5.90;99.90
40952;DHT22;26682;51.660;19.338;2023-05-07T01:14:47;5.90;99.90
40952;DHT22;26682;51.660;19.338;2023-05-07T01:17:36;5.90;99.90
40952;DHT22;26682;51.660;19.338;2023-05-07T01:20:19;5.90;99.90
40952;DHT22;26682;51.660;19.338;2023-05-07T01:23:03;5.90;99.90
40952;DHT22;26682;51.660;19.338;2023-05-07T01:25:53;5.90;99.90
40952;DHT22;26682;51.660;19.338;2023-05-07T01:28:37;5.90;99.90
40952;DHT22;26682;51.660;19.338;2023-05-07T01:31:20;5.90;99.90
40952;DHT22;26682;51.660;19.338;2023-05-07T01:34:04;5.90;99.90
40952;DHT22;26682;51.660;19.338;2023-05-07T01:36:47;5.90;99.90
40952;DHT22;26682;51.660;19.338;2023-05-07T01:39:31;5.90;99.90
40952;DHT22;26682;51.660;19.338;2023-05-07T01:42:14;5.90;99.90
40952;DHT22;26682;51.660;19.338;2023-05-07T01:44:57;5.90;99.90
40952;DHT22;26682;51.660;19.338;2023-05-07T01:47:39;5.90;99.90
40952;DHT22;26682;51.660;19.338;2023-05-07T01:50:23;5.80;99.90
40952;DHT22;26682;51.660;19.338;2023-05-07T01:53:05;5.90;99.90
40952;DHT22;26682;51.660;19.338;2023-05-07T01:55:48;5.80;99.90
40952;DHT22;26682;51.660;19.338;2023-05-07T01:58:31;5.80;99.90
40952;DHT22;26682;51.660;19.338;2023-05-07T02:01:14;5.80;99.90
40952;DHT22;26682;51.660;19.338;2023-05-07T02:03:58;5.80;99.90
40952;DHT22;26682;51.660;19.338;2023-05-07T02:06:43;5.80;99.90
40952;DHT22;26682;51.660;19.338;2023-05-07T02:09:26;5.80;99.90
40952;DHT22;26682;51.660;19.338;2023-05-07T02:12:09;5.80;99.90
40952;DHT22;26682;51.660;19.338;2023-05-07T02:14:52;5.70;99.90
40952;DHT22;26682;51.660;19.338;2023-05-07T02:17:35;5.70;99.90
40952;DHT22;26682;51.660;19.338;2023-05-07T02:20:19;5.70;99.90
40952;DHT22;26682;51.660;19.338;2023-05-07T02:23:02;5.70;99.90
40952;DHT22;26682;51.660;19.338;2023-05-07T02:25:44;5.70;99.90
40952;DHT22;26682;51.660;19.338;2023-05-07T02:28:28;5.70;99.90
40952;DHT22;26682;51.660;19.338;2023-05-07T02:31:14;5.70;99.90
40952;DHT22;26682;51.660;19.338;2023-05-07T02:33:57;5.70;99.90
40952;DHT22;26682;51.660;19.338;2023-05-07T02:36:40;5.70;99.90
40952;DHT22;26682;51.660;19.338;2023-05-07T02:39:26;5.70;99.90
40952;DHT22;26682;51.660;19.338;2023-05-07T02:42:08;5.70;99.90
40952;DHT22;26682;51.660;19.338;2023-05-07T02:44:51;5.70;99.90
40952;DHT22;26682;51.660;19.338;2023-05-07T02:47:34;5.70;99.90
40952;DHT22;26682;51.660;19.338;2023-05-07T02:50:17;5.70;99.90
40952;DHT22;26682;51.660;19.338;2023-05-07T02:52:59;5.70;99.90
40952;DHT22;26682;51.660;19.338;2023-05-07T02:55:42;5.70;99.90
40952;DHT22;26682;51.660;19.338;2023-05-07T02:58:25;5.70;99.90
40952;DHT22;26682;51.660;19.338;2023-05-07T03:01:08;5.70;99.90
40952;DHT22;26682;51.660;19.338;2023-05-07T03:04:14;5.70;99.90
40952;DHT22;26682;51.660;19.338;2023-05-07T03:06:56;5.70;99.90
40952;DHT22;26682;51.660;19.338;2023-05-07T03:09:39;5.70;99.90
40952;DHT22;26682;51.660;19.338;2023-05-07T03:12:21;5.60;99.90
40952;DHT22;26682;51.660;19.338;2023-05-07T03:15:04;5.60;99.90
40952;DHT22;26682;51.660;19.338;2023-05-07T03:17:47;5.60;99.90
40952;DHT22;26682;51.660;19.338;2023-05-07T03:20:29;5.60;99.90
40952;DHT22;26682;51.660;19.338;2023-05-07T03:23:12;5.60;99.90
40952;DHT22;26682;51.660;19.338;2023-05-07T03:25:54;5.50;99.90
40952;DHT22;26682;51.660;19.338;2023-05-07T03:28:38;5.60;99.90
40952;DHT22;26682;51.660;19.338;2023-05-07T03:31:24;5.60;99.90
40952;DHT22;26682;51.660;19.338;2023-05-07T03:34:07;5.50;99.90
40952;DHT22;26682;51.660;19.338;2023-05-07T03:36:50;5.50;99.90
40952;DHT22;26682;51.660;19.338;2023-05-07T03:39:34;5.50;99.90
40952;DHT22;26682;51.660;19.338;2023-05-07T03:42:18;5.50;99.90
40952;DHT22;26682;51.660;19.338;2023-05-07T03:45:04;5.60;99.90
40952;DHT22;26682;51.660;19.338;2023-05-07T03:47:48;5.60;99.90
40952;DHT22;26682;51.660;19.338;2023-05-07T03:50:34;5.60;99.90
40952;DHT22;26682;51.660;19.338;2023-05-07T03:53:16;5.50;99.90
40952;DHT22;26682;51.660;19.338;2023-05-07T03:55:59;5.50;99.90
40952;DHT22;26682;51.660;19.338;2023-05-07T03:58:45;5.50;99.90
40952;DHT22;26682;51.660;19.338;2023-05-07T04:01:27;5.50;99.90
40952;DHT22;26682;51.660;19.338;2023-05-07T04:04:11;5.50;99.90
40952;DHT22;26682;51.660;19.338;2023-05-07T04:06:54;5.50;99.90
40952;DHT22;26682;51.660;19.338;2023-05-07T04:09:37;5.50;99.90
40952;DHT22;26682;51.660;19.338;2023-05-07T04:12:19;5.50;99.90
40952;DHT22;26682;51.660;19.338;2023-05-07T04:15:03;5.50;99.90
40952;DHT22;26682;51.660;19.338;2023-05-07T04:17:46;5.40;99.90
40952;DHT22;26682;51.660;19.338;2023-05-07T04:20:30;5.40;99.90
40952;DHT22;26682;51.660;19.338;2023-05-07T04:23:17;5.40;99.90
40952;DHT22;26682;51.660;19.338;2023-05-07T04:26:00;5.40;99.90
40952;DHT22;26682;51.660;19.338;2023-05-07T04:28:51;5.50;99.90
40952;DHT22;26682;51.660;19.338;2023-05-07T04:31:33;5.40;99.90
40952;DHT22;26682;51.660;19.338;2023-05-07T04:34:16;5.40;99.90
40952;DHT22;26682;51.660;19.338;2023-05-07T04:36:59;5.40;99.90
40952;DHT22;26682;51.660;19.338;2023-05-07T04:39:42;5.50;99.90
40952;DHT22;26682;51.660;19.338;2023-05-07T04:42:24;5.50;99.90
40952;DHT22;26682;51.660;19.338;2023-05-07T04:45:07;5.40;99.90
40952;DHT22;26682;51.660;19.338;2023-05-07T04:47:52;5.40;99.90
40952;DHT22;26682;51.660;19.338;2023-05-07T04:50:35;5.50;99.90
40952;DHT22;26682;51.660;19.338;2023-05-07T04:53:18;5.50;99.90
40952;DHT22;26682;51.660;19.338;2023-05-07T04:56:01;5.50;99.90
40952;DHT22;26682;51.660;19.338;2023-05-07T04:58:53;5.50;99.90
40952;DHT22;26682;51.660;19.338;2023-05-07T05:01:37;5.50;99.90
40952;DHT22;26682;51.660;19.338;2023-05-07T05:04:19;5.50;99.90
40952;DHT22;26682;51.660;19.338;2023-05-07T05:07:02;5.50;99.90
40952;DHT22;26682;51.660;19.338;2023-05-07T05:09:48;5.60;99.90
40952;DHT22;26682;51.660;19.338;2023-05-07T05:12:31;5.60;99.90
40952;DHT22;26682;51.660;19.338;2023-05-07T05:15:15;5.60;99.90
40952;DHT22;26682;51.660;19.338;2023-05-07T05:17:58;5.60;99.90
40952;DHT22;26682;51.660;19.338;2023-05-07T05:20:40;5.60;99.90
40952;DHT22;26682;51.660;19.338;2023-05-07T05:23:22;5.60;99.90
40952;DHT22;26682;51.660;19.338;2023-05-07T05:26:05;5.60;99.90
40952;DHT22;26682;51.660;19.338;2023-05-07T05:28:48;5.60;99.90
40952;DHT22;26682;51.660;19.338;2023-05-07T05:31:34;5.70;99.90
40952;DHT22;26682;51.660;19.338;2023-05-07T05:34:18;5.70;99.90
40952;DHT22;26682;51.660;19.338;2023-05-07T05:37:02;5.80;99.90
40952;DHT22;26682;51.660;19.338;2023-05-07T05:39:45;5.80;99.90
40952;DHT22;26682;51.660;19.338;2023-05-07T05:42:28;5.90;99.90
40952;DHT22;26682;51.660;19.338;2023-05-07T05:45:10;5.90;99.90
40952;DHT22;26682;51.660;19.338;2023-05-07T05:47:56;5.90;99.90
40952;DHT22;26682;51.660;19.338;2023-05-07T05:50:39;5.90;99.90
40952;DHT22;26682;51.660;19.338;2023-05-07T05:53:22;5.80;99.90
40952;DHT22;26682;51.660;19.338;2023-05-07T05:56:05;5.80;99.90
40952;DHT22;26682;51.660;19.338;2023-05-07T05:58:49;5.90;99.90
40952;DHT22;26682;51.660;19.338;2023-05-07T06:01:32;5.90;99.90
40952;DHT22;26682;51.660;19.338;2023-05-07T06:04:17;5.90;99.90
40952;DHT22;26682;51.660;19.338;2023-05-07T06:07:00;6.00;99.90
40952;DHT22;26682;51.660;19.338;2023-05-07T06:09:42;6.00;99.90
40952;DHT22;26682;51.660;19.338;2023-05-07T06:12:26;6.00;99.90
40952;DHT22;26682;51.660;19.338;2023-05-07T06:15:09;5.90;99.90
40952;DHT22;26682;51.660;19.338;2023-05-07T06:17:52;6.00;99.90
40952;DHT22;26682;51.660;19.338;2023-05-07T06:20:34;6.00;99.90
40952;DHT22;26682;51.660;19.338;2023-05-07T06:23:20;6.00;99.90
40952;DHT22;26682;51.660;19.338;2023-05-07T06:26:03;6.00;99.90
40952;DHT22;26682;51.660;19.338;2023-05-07T06:28:51;6.10;99.90
40952;DHT22;26682;51.660;19.338;2023-05-07T06:31:34;6.00;99.90
40952;DHT22;26682;51.660;19.338;2023-05-07T06:34:20;6.10;99.90
40952;DHT22;26682;51.660;19.338;2023-05-07T06:37:02;6.10;99.90
40952;DHT22;26682;51.660;19.338;2023-05-07T06:40:00;6.10;99.90
40952;DHT22;26682;51.660;19.338;2023-05-07T06:42:45;6.10;99.90
40952;DHT22;26682;51.660;19.338;2023-05-07T06:45:38;6.20;99.90
40952;DHT22;26682;51.660;19.338;2023-05-07T06:48:22;6.30;99.90
40952;DHT22;26682;51.660;19.338;2023-05-07T06:51:11;6.30;99.90
40952;DHT22;26682;51.660;19.338;2023-05-07T06:53:55;6.20;99.90
40952;DHT22;26682;51.660;19.338;2023-05-07T06:56:38;6.20;99.90
40952;DHT22;26682;51.660;19.338;2023-05-07T06:59:23;6.30;99.90
40952;DHT22;26682;51.660;19.338;2023-05-07T07:02:07;6.40;99.90
40952;DHT22;26682;51.660;19.338;2023-05-07T07:04:51;6.40;99.90
40952;DHT22;26682;51.660;19.338;2023-05-07T07:07:34;6.40;99.90
40952;DHT22;26682;51.660;19.338;2023-05-07T07:10:21;6.40;99.90
40952;DHT22;26682;51.660;19.338;2023-05-07T07:13:05;6.30;96.00
40952;DHT22;26682;51.660;19.338;2023-05-07T07:15:48;6.30;92.70
40952;DHT22;26682;51.660;19.338;2023-05-07T07:18:32;6.30;99.90
40952;DHT22;26682;51.660;19.338;2023-05-07T07:21:15;6.40;99.90
40952;DHT22;26682;51.660;19.338;2023-05-07T07:23:58;6.60;99.90
40952;DHT22;26682;51.660;19.338;2023-05-07T07:26:40;6.60;75.70
40952;DHT22;26682;51.660;19.338;2023-05-07T07:29:25;6.60;59.90
40952;DHT22;26682;51.660;19.338;2023-05-07T07:32:10;6.60;29.30
40952;DHT22;26682;51.660;19.338;2023-05-07T07:34:53;6.60;52.70
40952;DHT22;26682;51.660;19.338;2023-05-07T07:37:35;6.60;35.60
40952;DHT22;26682;51.660;19.338;2023-05-07T07:40:18;6.60;26.30
40952;DHT22;26682;51.660;19.338;2023-05-07T07:43:01;6.50;16.70
40952;DHT22;26682;51.660;19.338;2023-05-07T07:45:46;6.50;42.60
40952;DHT22;26682;51.660;19.338;2023-05-07T07:48:28;6.50;30.30
40952;DHT22;26682;51.660;19.338;2023-05-07T07:51:12;6.50;1.00
40952;DHT22;26682;51.660;19.338;2023-05-07T07:53:55;6.60;65.60
40952;DHT22;26682;51.660;19.338;2023-05-07T07:56:38;6.60;1.00
40952;DHT22;26682;51.660;19.338;2023-05-07T07:59:21;6.60;1.00
40952;DHT22;26682;51.660;19.338;2023-05-07T08:02:05;6.60;1.00
40952;DHT22;26682;51.660;19.338;2023-05-07T08:04:49;6.60;1.00
40952;DHT22;26682;51.660;19.338;2023-05-07T08:07:32;6.60;1.00
40952;DHT22;26682;51.660;19.338;2023-05-07T08:10:15;6.60;1.00
40952;DHT22;26682;51.660;19.338;2023-05-07T08:13:07;6.70;1.00
40952;DHT22;26682;51.660;19.338;2023-05-07T08:15:52;6.70;1.00
40952;DHT22;26682;51.660;19.338;2023-05-07T08:18:34;6.60;1.00
40952;DHT22;26682;51.660;19.338;2023-05-07T08:21:18;6.60;1.00
40952;DHT22;26682;51.660;19.338;2023-05-07T08:24:00;6.60;1.00
40952;DHT22;26682;51.660;19.338;2023-05-07T08:26:44;6.70;1.00
40952;DHT22;26682;51.660;19.338;2023-05-07T08:29:28;6.70;1.00
40952;DHT22;26682;51.660;19.338;2023-05-07T08:32:12;6.70;1.00
40952;DHT22;26682;51.660;19.338;2023-05-07T08:34:54;6.70;1.00
40952;DHT22;26682;51.660;19.338;2023-05-07T08:37:37;6.80;99.90
40952;DHT22;26682;51.660;19.338;2023-05-07T08:40:24;6.80;99.90
40952;DHT22;26682;51.660;19.338;2023-05-07T08:43:08;6.80;99.90
40952;DHT22;26682;51.660;19.338;2023-05-07T08:45:55;6.80;99.90
40952;DHT22;26682;51.660;19.338;2023-05-07T08:48:44;7.00;99.90
40952;DHT22;26682;51.660;19.338;2023-05-07T08:51:29;7.10;99.90
40952;DHT22;26682;51.660;19.338;2023-05-07T08:54:16;7.20;1.00
40952;DHT22;26682;51.660;19.338;2023-05-07T08:56:59;7.30;1.00
40952;DHT22;26682;51.660;19.338;2023-05-07T08:59:42;7.30;1.00
40952;DHT22;26682;51.660;19.338;2023-05-07T09:02:25;7.30;1.00
40952;DHT22;26682;51.660;19.338;2023-05-07T09:05:09;7.30;1.00
40952;DHT22;26682;51.660;19.338;2023-05-07T09:07:53;7.50;1.00
40952;DHT22;26682;51.660;19.338;2023-05-07T09:10:40;7.60;99.90
40952;DHT22;26682;51.660;19.338;2023-05-07T09:13:22;7.70;99.90
40952;DHT22;26682;51.660;19.338;2023-05-07T09:16:12;7.60;99.90
40952;DHT22;26682;51.660;19.338;2023-05-07T09:18:59;7.60;99.90
40952;DHT22;26682;51.660;19.338;2023-05-07T09:21:42;7.50;99.90
40952;DHT22;26682;51.660;19.338;2023-05-07T09:24:27;7.50;99.90
40952;DHT22;26682;51.660;19.338;2023-05-07T09:27:11;7.70;1.00
40952;DHT22;26682;51.660;19.338;2023-05-07T09:29:58;7.80;99.90
40952;DHT22;26682;51.660;19.338;2023-05-07T09:32:40;7.90;71.40
40952;DHT22;26682;51.660;19.338;2023-05-07T09:35:30;7.90;39.30
40952;DHT22;26682;51.660;19.338;2023-05-07T09:38:19;8.20;98.20
40952;DHT22;26682;51.660;19.338;2023-05-07T09:41:09;8.30;1.00
40952;DHT22;26682;51.660;19.338;2023-05-07T09:43:58;8.40;1.00
40952;DHT22;26682;51.660;19.338;2023-05-07T09:46:54;8.20;17.80
40952;DHT22;26682;51.660;19.338;2023-05-07T09:49:47;8.10;1.00
40952;DHT22;26682;51.660;19.338;2023-05-07T09:52:35;7.90;99.90
40952;DHT22;26682;51.660;19.338;2023-05-07T09:55:20;7.90;98.80
40952;DHT22;26682;51.660;19.338;2023-05-07T09:58:04;7.90;99.90
40952;DHT22;26682;51.660;19.338;2023-05-07T10:00:48;8.10;99.90
40952;DHT22;26682;51.660;19.338;2023-05-07T10:03:33;8.30;99.90
40952;DHT22;26682;51.660;19.338;2023-05-07T10:06:20;8.50;99.90
40952;DHT22;26682;51.660;19.338;2023-05-07T10:09:04;8.80;99.90
40952;DHT22;26682;51.660;19.338;2023-05-07T10:11:50;9.00;99.90
40952;DHT22;26682;51.660;19.338;2023-05-07T10:14:36;9.00;99.90
40952;DHT22;26682;51.660;19.338;2023-05-07T10:17:20;8.80;99.90
40952;DHT22;26682;51.660;19.338;2023-05-07T10:20:05;8.90;99.90
40952;DHT22;26682;51.660;19.338;2023-05-07T10:22:52;8.80;99.90
40952;DHT22;26682;51.660;19.338;2023-05-07T10:25:44;8.70;99.90
40952;DHT22;26682;51.660;19.338;2023-05-07T10:28:37;8.50;99.90
40952;DHT22;26682;51.660;19.338;2023-05-07T10:34:41;8.90;99.90
40952;DHT22;26682;51.660;19.338;2023-05-07T10:37:26;9.10;99.90
40952;DHT22;26682;51.660;19.338;2023-05-07T10:40:11;9.20;99.90
40952;DHT22;26682;51.660;19.338;2023-05-07T10:43:02;9.10;99.90
40952;DHT22;26682;51.660;19.338;2023-05-07T10:46:19;9.20;99.90
40952;DHT22;26682;51.660;19.338;2023-05-07T10:49:15;9.00;99.90
40952;DHT22;26682;51.660;19.338;2023-05-07T10:52:16;9.00;99.90
40952;DHT22;26682;51.660;19.338;2023-05-07T10:55:23;8.90;99.90
40952;DHT22;26682;51.660;19.338;2023-05-07T10:58:37;9.20;99.90
40952;DHT22;26682;51.660;19.338;2023-05-07T11:05:22;9.10;99.90
40952;DHT22;26682;51.660;19.338;2023-05-07T11:08:23;9.00;99.90
40952;DHT22;26682;51.660;19.338;2023-05-07T11:11:15;9.00;99.90
40952;DHT22;26682;51.660;19.338;2023-05-07T11:14:04;8.80;99.90
40952;DHT22;26682;51.660;19.338;2023-05-07T11:17:03;8.60;99.90
40952;DHT22;26682;51.660;19.338;2023-05-07T11:19:52;8.50;99.90
40952;DHT22;26682;51.660;19.338;2023-05-07T11:22:45;8.60;1.00
40952;DHT22;26682;51.660;19.338;2023-05-07T11:25:34;8.80;1.00
40952;DHT22;26682;51.660;19.338;2023-05-07T11:28:36;9.00;1.00
40952;DHT22;26682;51.660;19.338;2023-05-07T11:31:27;8.90;99.90
40952;DHT22;26682;51.660;19.338;2023-05-07T11:34:15;8.80;1.00
40952;DHT22;26682;51.660;19.338;2023-05-07T11:37:03;8.90;99.90
40952;DHT22;26682;51.660;19.338;2023-05-07T11:40:06;9.20;1.00
40952;DHT22;26682;51.660;19.338;2023-05-07T11:42:49;9.30;1.00
40952;DHT22;26682;51.660;19.338;2023-05-07T11:45:32;9.10;99.90
40952;DHT22;26682;51.660;19.338;2023-05-07T11:48:17;8.90;99.90
40952;DHT22;26682;51.660;19.338;2023-05-07T11:51:00;8.80;99.90
40952;DHT22;26682;51.660;19.338;2023-05-07T11:53:44;8.80;1.00
40952;DHT22;26682;51.660;19.338;2023-05-07T11:56:26;8.70;1.00
40952;DHT22;26682;51.660;19.338;2023-05-07T11:59:10;8.60;1.00
40952;DHT22;26682;51.660;19.338;2023-05-07T12:01:55;8.70;1.00
40952;DHT22;26682;51.660;19.338;2023-05-07T12:04:40;8.90;1.00
40952;DHT22;26682;51.660;19.338;2023-05-07T12:07:23;9.00;1.00
40952;DHT22;26682;51.660;19.338;2023-05-07T12:10:06;9.20;99.90
40952;DHT22;26682;51.660;19.338;2023-05-07T12:12:49;9.20;99.90
40952;DHT22;26682;51.660;19.338;2023-05-07T12:15:35;9.10;99.90
40952;DHT22;26682;51.660;19.338;2023-05-07T12:18:18;8.90;99.90
40952;DHT22;26682;51.660;19.338;2023-05-07T12:21:01;8.80;99.90
40952;DHT22;26682;51.660;19.338;2023-05-07T12:23:44;8.90;99.90
40952;DHT22;26682;51.660;19.338;2023-05-07T12:26:27;9.00;99.90
40952;DHT22;26682;51.660;19.338;2023-05-07T12:29:13;9.00;99.90
40952;DHT22;26682;51.660;19.338;2023-05-07T12:31:55;8.90;99.90
40952;DHT22;26682;51.660;19.338;2023-05-07T12:34:39;9.00;99.90
40952;DHT22;26682;51.660;19.338;2023-05-07T12:37:25;9.20;99.90
40952;DHT22;26682;51.660;19.338;2023-05-07T12:40:12;9.30;99.90
40952;DHT22;26682;51.660;19.338;2023-05-07T12:42:55;9.30;99.90
40952;DHT22;26682;51.660;19.338;2023-05-07T12:45:41;9.40;99.90
40952;DHT22;26682;51.660;19.338;2023-05-07T12:48:25;9.60;99.90
40952;DHT22;26682;51.660;19.338;2023-05-07T12:51:10;9.50;95.00
40952;DHT22;26682;51.660;19.338;2023-05-07T12:53:56;9.30;85.40
40952;DHT22;26682;51.660;19.338;2023-05-07T12:56:39;9.20;97.20
40952;DHT22;26682;51.660;19.338;2023-05-07T12:59:38;9.20;99.90
40952;DHT22;26682;51.660;19.338;2023-05-07T13:02:32;9.20;99.90
40952;DHT22;26682;51.660;19.338;2023-05-07T13:05:15;9.10;93.10
40952;DHT22;26682;51.660;19.338;2023-05-07T13:07:58;9.10;99.90
40952;DHT22;26682;51.660;19.338;2023-05-07T13:10:41;9.20;99.90
40952;DHT22;26682;51.660;19.338;2023-05-07T13:13:23;9.30;99.90
40952;DHT22;26682;51.660;19.338;2023-05-07T13:16:08;9.50;99.90
40952;DHT22;26682;51.660;19.338;2023-05-07T13:18:51;9.40;77.80
40952;DHT22;26682;51.660;19.338;2023-05-07T13:21:34;9.40;23.80
40952;DHT22;26682;51.660;19.338;2023-05-07T13:24:16;9.50;2.70
40952;DHT22;26682;51.660;19.338;2023-05-07T13:26:59;9.40;1.00
40952;DHT22;26682;51.660;19.338;2023-05-07T13:29:42;9.40;1.00
40952;DHT22;26682;51.660;19.338;2023-05-07T13:32:24;9.40;1.00
40952;DHT22;26682;51.660;19.338;2023-05-07T13:35:07;9.40;1.00
40952;DHT22;26682;51.660;19.338;2023-05-07T13:37:50;9.40;1.00
40952;DHT22;26682;51.660;19.338;2023-05-07T13:40:34;9.30;1.00
40952;DHT22;26682;51.660;19.338;2023-05-07T13:43:16;9.30;1.00
40952;DHT22;26682;51.660;19.338;2023-05-07T13:46:00;9.50;1.00
40952;DHT22;26682;51.660;19.338;2023-05-07T13:48:44;9.50;1.00
40952;DHT22;26682;51.660;19.338;2023-05-07T13:51:26;9.60;1.00
40952;DHT22;26682;51.660;19.338;2023-05-07T13:54:09;9.60;99.90
40952;DHT22;26682;51.660;19.338;2023-05-07T13:56:51;9.60;99.90
40952;DHT22;26682;51.660;19.338;2023-05-07T13:59:34;9.90;99.90
40952;DHT22;26682;51.660;19.338;2023-05-07T14:02:16;10.20;99.90
40952;DHT22;26682;51.660;19.338;2023-05-07T14:05:00;10.00;99.90
40952;DHT22;26682;51.660;19.338;2023-05-07T14:07:42;10.00;99.90
40952;DHT22;26682;51.660;19.338;2023-05-07T14:10:26;9.90;99.90
40952;DHT22;26682;51.660;19.338;2023-05-07T14:13:09;10.20;99.90
40952;DHT22;26682;51.660;19.338;2023-05-07T14:15:53;10.20;99.90
40952;DHT22;26682;51.660;19.338;2023-05-07T14:18:35;10.20;99.90
40952;DHT22;26682;51.660;19.338;2023-05-07T14:21:19;10.20;99.90
40952;DHT22;26682;51.660;19.338;2023-05-07T14:24:01;10.30;99.90
40952;DHT22;26682;51.660;19.338;2023-05-07T14:26:44;10.30;99.90
40952;DHT22;26682;51.660;19.338;2023-05-07T14:29:27;10.30;52.50
40952;DHT22;26682;51.660;19.338;2023-05-07T14:32:10;10.10;75.90
40952;DHT22;26682;51.660;19.338;2023-05-07T14:34:53;10.10;60.70
40952;DHT22;26682;51.660;19.338;2023-05-07T14:37:35;10.00;46.30
40952;DHT22;26682;51.660;19.338;2023-05-07T14:40:18;9.90;23.40
40952;DHT22;26682;51.660;19.338;2023-05-07T14:43:00;9.80;62.40
40952;DHT22;26682;51.660;19.338;2023-05-07T14:45:43;9.70;2.90
40952;DHT22;26682;51.660;19.338;2023-05-07T14:48:26;9.70;99.90
40952;DHT22;26682;51.660;19.338;2023-05-07T14:51:09;9.60;67.30
40952;DHT22;26682;51.660;19.338;2023-05-07T14:53:52;9.60;81.20
40952;DHT22;26682;51.660;19.338;2023-05-07T14:56:35;9.50;29.30
40952;DHT22;26682;51.660;19.338;2023-05-07T14:59:19;9.40;45.50
40952;DHT22;26682;51.660;19.338;2023-05-07T15:02:03;9.30;43.00
40952;DHT22;26682;51.660;19.338;2023-05-07T15:04:49;9.40;99.90
40952;DHT22;26682;51.660;19.338;2023-05-07T15:07:31;9.40;99.90
40952;DHT22;26682;51.660;19.338;2023-05-07T15:10:15;9.50;99.90
40952;DHT22;26682;51.660;19.338;2023-05-07T15:12:58;9.60;99.90
40952;DHT22;26682;51.660;19.338;2023-05-07T15:15:42;9.60;99.90
40952;DHT22;26682;51.660;19.338;2023-05-07T15:18:26;9.70;99.90
40952;DHT22;26682;51.660;19.338;2023-05-07T15:21:09;9.60;56.10
40952;DHT22;26682;51.660;19.338;2023-05-07T15:23:53;9.60;99.90
40952;DHT22;26682;51.660;19.338;2023-05-07T15:26:35;9.70;99.90
40952;DHT22;26682;51.660;19.338;2023-05-07T15:29:18;9.80;92.40
40952;DHT22;26682;51.660;19.338;2023-05-07T15:32:00;9.90;99.40
40952;DHT22;26682;51.660;19.338;2023-05-07T15:34:43;9.90;38.70
40952;DHT22;26682;51.660;19.338;2023-05-07T15:37:27;9.80;34.80
40952;DHT22;26682;51.660;19.338;2023-05-07T15:40:09;9.60;21.30
40952;DHT22;26682;51.660;19.338;2023-05-07T15:42:54;9.50;29.80
40952;DHT22;26682;51.660;19.338;2023-05-07T15:45:42;9.40;1.00
40952;DHT22;26682;51.660;19.338;2023-05-07T15:48:26;9.30;27.90
40952;DHT22;26682;51.660;19.338;2023-05-07T15:51:10;9.30;41.20
40952;DHT22;26682;51.660;19.338;2023-05-07T15:53:53;9.30;67.20
40952;DHT22;26682;51.660;19.338;2023-05-07T15:56:35;9.30;54.60
40952;DHT22;26682;51.660;19.338;2023-05-07T15:59:18;9.30;20.20
40952;DHT22;26682;51.660;19.338;2023-05-07T16:02:01;9.30;57.20
40952;DHT22;26682;51.660;19.338;2023-05-07T16:04:45;9.40;64.60
40952;DHT22;26682;51.660;19.338;2023-05-07T16:07:28;9.40;60.00
40952;DHT22;26682;51.660;19.338;2023-05-07T16:10:11;9.40;83.90
40952;DHT22;26682;51.660;19.338;2023-05-07T16:12:56;9.50;99.90
40952;DHT22;26682;51.660;19.338;2023-05-07T16:15:40;9.40;81.60
40952;DHT22;26682;51.660;19.338;2023-05-07T16:18:23;9.30;93.70
40952;DHT22;26682;51.660;19.338;2023-05-07T16:21:06;9.30;99.90
40952;DHT22;26682;51.660;19.338;2023-05-07T16:23:48;9.40;99.90
40952;DHT22;26682;51.660;19.338;2023-05-07T16:26:32;9.30;99.90
40952;DHT22;26682;51.660;19.338;2023-05-07T16:29:14;9.20;99.90
40952;DHT22;26682;51.660;19.338;2023-05-07T16:31:57;9.20;99.90
40952;DHT22;26682;51.660;19.338;2023-05-07T16:34:40;9.10;99.90
40952;DHT22;26682;51.660;19.338;2023-05-07T16:37:23;9.10;99.90
40952;DHT22;26682;51.660;19.338;2023-05-07T16:40:07;9.10;99.90
40952;DHT22;26682;51.660;19.338;2023-05-07T16:42:50;9.10;99.90
40952;DHT22;26682;51.660;19.338;2023-05-07T16:45:36;9.10;99.90
40952;DHT22;26682;51.660;19.338;2023-05-07T16:48:19;9.10;99.90
40952;DHT22;26682;51.660;19.338;2023-05-07T16:51:02;9.10;99.90
40952;DHT22;26682;51.660;19.338;2023-05-07T16:53:45;9.10;99.90
40952;DHT22;26682;51.660;19.338;2023-05-07T16:56:28;9.10;99.90
40952;DHT22;26682;51.660;19.338;2023-05-07T16:59:11;9.00;99.90
40952;DHT22;26682;51.660;19.338;2023-05-07T17:01:53;9.00;99.90
40952;DHT22;26682;51.660;19.338;2023-05-07T17:04:39;9.00;99.90
40952;DHT22;26682;51.660;19.338;2023-05-07T17:07:22;9.00;99.90
40952;DHT22;26682;51.660;19.338;2023-05-07T17:10:07;9.00;99.90
40952;DHT22;26682;51.660;19.338;2023-05-07T17:12:53;9.00;99.90
40952;DHT22;26682;51.660;19.338;2023-05-07T17:15:36;9.00;99.90
40952;DHT22;26682;51.660;19.338;2023-05-07T17:18:18;8.90;99.90
40952;DHT22;26682;51.660;19.338;2023-05-07T17:21:01;8.90;99.90
40952;DHT22;26682;51.660;19.338;2023-05-07T17:23:44;8.90;99.90
40952;DHT22;26682;51.660;19.338;2023-05-07T17:26:26;8.90;99.90
40952;DHT22;26682;51.660;19.338;2023-05-07T17:29:09;8.80;99.90